Time;durP1;ratioP1;P1;durP2;ratioP2;P2;SDS_P1;SDS_P2;PMS_P1;PMS_P2;Temp;Humidity;BMP_temperature;BMP_pressure;BME280_temperature;BME280_humidity;BME280_pressure;Samples;Min_cycle;Max_cycle;Signal;HPM_P1;HPM_P2
2023/04/02 00:01:36;;;;;;;16.00;8.87;;;4.50;99.90;;;;;;6277275;22;20016;-82
2023/04/02 00:04:04;;;;;;;19.20;9.33;;;4.50;99.90;;;;;;6276189;22;20454;-83
2023/04/02 00:06:33;;;;;;;15.47;8.40;;;5.40;99.90;;;;;;6275904;22;20781;-82
2023/04/02 00:09:03;;;;;;;17.60;8.37;;;4.50;99.90;;;;;;6275829;22;20020;-82
2023/04/02 00:11:44;;;;;;;14.40;7.30;;;4.50;99.90;;;;;;6276411;22;20023;-81
2023/04/02 00:14:32;;;;;;;14.33;7.50;;;4.50;99.90;;;;;;6275257;22;20051;-81
2023/04/02 00:17:00;;;;;;;15.50;7.03;;;4.40;99.90;;;;;;6275715;22;20015;-82
2023/04/02 00:19:47;;;;;;;14.23;8.00;;;4.40;99.90;;;;;;6277881;22;20007;-82
2023/04/02 00:22:19;;;;;;;13.07;7.43;;;4.30;99.90;;;;;;6281704;22;20024;-82
2023/04/02 00:24:45;;;;;;;13.07;6.50;;;4.30;99.90;;;;;;6278513;22;20018;-81
2023/04/02 00:27:13;;;;;;;13.63;7.43;;;4.40;99.90;;;;;;6284751;22;19999;-81
2023/04/02 00:29:51;;;;;;;15.00;7.00;;;4.20;99.90;;;;;;6288557;22;20027;-81
2023/04/02 00:32:23;;;;;;;14.53;6.93;;;5.40;99.90;;;;;;6278213;22;20018;-81
2023/04/02 00:34:49;;;;;;;11.17;5.60;;;5.10;99.90;;;;;;6277665;22;20100;-81
2023/04/02 00:37:26;;;;;;;11.60;6.10;;;4.00;99.90;;;;;;6276919;22;20339;-81
2023/04/02 00:39:57;;;;;;;12.53;5.67;;;4.00;99.90;;;;;;6276102;22;20023;-80
2023/04/02 00:42:24;;;;;;;13.40;6.30;;;3.90;99.90;;;;;;6277425;22;20067;-81
2023/04/02 00:44:53;;;;;;;12.00;5.70;;;3.90;99.90;;;;;;6277823;22;20374;-81
2023/04/02 00:47:25;;;;;;;12.57;6.23;;;3.90;99.90;;;;;;6277967;22;20063;-81
2023/04/02 00:50:27;;;;;;;12.27;5.97;;;3.90;99.90;;;;;;6276911;22;20016;-81
2023/04/02 00:52:56;;;;;;;12.07;5.90;;;3.80;99.90;;;;;;6261164;22;20019;-80
2023/04/02 00:55:40;;;;;;;12.23;5.90;;;3.80;99.90;;;;;;6275588;22;20350;-81
2023/04/02 00:58:26;;;;;;;12.35;5.72;;;3.80;99.90;;;;;;6275499;22;20086;-81
2023/04/02 01:00:52;;;;;;;13.50;5.90;;;3.80;99.90;;;;;;6277682;22;20018;-80
2023/04/02 01:03:18;;;;;;;12.37;6.10;;;3.80;99.90;;;;;;6275671;22;20030;-81
2023/04/02 01:06:10;;;;;;;13.77;6.60;;;3.80;99.90;;;;;;6277493;22;20012;-80
2023/04/02 01:09:04;;;;;;;13.60;6.17;;;3.70;99.90;;;;;;6276292;22;20069;-81
2023/04/02 01:11:50;;;;;;;12.02;6.15;;;3.70;99.90;;;;;;6276979;22;20085;-81
2023/04/02 01:14:34;;;;;;;12.90;5.40;;;3.60;99.90;;;;;;6275360;22;20012;-81
2023/04/02 01:17:17;;;;;;;;;;;3.50;99.90;;;;;;6275522;22;20061;-81
2023/04/02 01:20:21;;;;;;;11.50;4.53;;;3.50;99.90;;;;;;6275542;22;19919;-80
2023/04/02 01:22:54;;;;;;;12.18;4.30;;;3.40;99.90;;;;;;6275531;22;20016;-81
2023/04/02 01:25:35;;;;;;;11.33;4.00;;;3.40;99.90;;;;;;6274425;22;20016;-81
2023/04/02 01:28:06;;;;;;;11.97;3.70;;;3.30;99.90;;;;;;6275382;22;20042;-81
2023/04/02 01:30:35;;;;;;;10.07;4.30;;;3.30;99.90;;;;;;6275901;22;20012;-81
2023/04/02 01:33:01;;;;;;;11.33;4.10;;;3.30;99.90;;;;;;6274992;22;20067;-81
2023/04/02 01:35:33;;;;;;;10.20;3.97;;;3.20;99.90;;;;;;6277320;22;20323;-80
2023/04/02 01:38:10;;;;;;;11.53;4.03;;;3.20;99.90;;;;;;6274359;22;20234;-80
2023/04/02 01:41:07;;;;;;;12.00;4.80;;;3.20;99.90;;;;;;6275282;22;20008;-81
2023/04/02 01:43:42;;;;;;;10.47;3.93;;;3.10;99.90;;;;;;6275789;22;20020;-81
2023/04/02 01:46:30;;;;;;;9.57;3.47;;;3.00;99.90;;;;;;6274199;22;20016;-81
2023/04/02 01:49:00;;;;;;;11.53;3.37;;;3.00;99.90;;;;;;6275879;22;20022;-81
2023/04/02 01:51:33;;;;;;;11.60;3.63;;;2.90;99.90;;;;;;6278196;22;20019;-81
2023/04/02 01:54:01;;;;;;;10.23;3.80;;;2.80;99.90;;;;;;6282253;22;20016;-81
2023/04/02 01:56:29;;;;;;;12.23;3.73;;;2.80;99.90;;;;;;6276091;22;20027;-81
2023/04/02 01:58:57;;;;;;;12.37;3.30;;;2.80;99.90;;;;;;6277732;22;20031;-82
2023/04/02 02:01:30;;;;;;;9.07;3.17;;;2.70;99.90;;;;;;6281572;22;20022;-82
2023/04/02 02:03:56;;;;;;;11.48;3.13;;;2.70;99.90;;;;;;6278221;22;20012;-81
2023/04/02 02:06:22;;;;;;;10.53;3.27;;;2.60;99.90;;;;;;6275084;22;20321;-81
2023/04/02 02:08:50;;;;;;;10.10;3.07;;;2.60;99.90;;;;;;6274149;22;20492;-81
2023/04/02 02:11:20;;;;;;;9.47;3.10;;;2.50;99.90;;;;;;6274862;22;20016;-82
2023/04/02 02:14:20;;;;;;;8.90;3.30;;;2.50;99.90;;;;;;6276503;22;20015;-81
2023/04/02 02:16:47;;;;;;;10.30;2.90;;;2.40;99.90;;;;;;6270347;22;20047;-81
2023/04/02 02:19:31;;;;;;;11.73;3.07;;;2.30;99.90;;;;;;6274437;22;20381;-81
2023/04/02 02:22:03;;;;;;;9.47;2.80;;;2.20;99.90;;;;;;6274556;22;20015;-81
2023/04/02 02:24:34;;;;;;;9.57;3.30;;;2.10;99.90;;;;;;6276952;22;20016;-81
2023/04/02 02:27:23;;;;;;;10.13;3.27;;;2.00;99.90;;;;;;6275746;22;20459;-81
2023/04/02 02:29:55;;;;;;;8.77;2.90;;;1.90;99.90;;;;;;6230844;22;20456;-81
2023/04/02 02:32:25;;;;;;;10.77;2.83;;;1.80;99.90;;;;;;6276902;22;20069;-82
2023/04/02 02:35:02;;;;;;;11.70;2.93;;;1.70;99.90;;;;;;6276355;22;20066;-81
2023/04/02 02:37:34;;;;;;;9.97;2.57;;;1.70;99.90;;;;;;6274784;22;20016;-81
2023/04/02 02:40:04;;;;;;;9.27;2.50;;;1.60;99.90;;;;;;6274636;22;20495;-81
2023/04/02 02:42:35;;;;;;;8.17;2.67;;;1.60;99.90;;;;;;6276274;22;20026;-81
2023/04/02 02:45:05;;;;;;;7.93;2.80;;;1.50;99.90;;;;;;6276309;22;20027;-81
2023/04/02 02:47:35;;;;;;;9.73;2.67;;;1.50;99.90;;;;;;6276915;22;20016;-81
2023/04/02 02:50:08;;;;;;;12.83;3.23;;;1.50;99.90;;;;;;6275312;22;20012;-81
2023/04/02 02:52:38;;;;;;;10.30;3.23;;;1.50;99.90;;;;;;6274553;22;20397;-81
2023/04/02 02:55:16;;;;;;;11.67;3.23;;;1.40;99.90;;;;;;6273740;22;20250;-82
2023/04/02 02:57:54;;;;;;;11.07;3.27;;;1.40;99.90;;;;;;6276343;22;20015;-81
2023/04/02 03:00:23;;;;;;;11.30;3.33;;;1.40;99.90;;;;;;6276143;22;20015;-81
2023/04/02 03:02:51;;;;;;;9.90;3.37;;;1.30;99.90;;;;;;6274105;22;20505;-81
2023/04/02 03:05:21;;;;;;;12.20;3.43;;;1.30;99.90;;;;;;6275834;22;20030;-81
2023/04/02 03:07:51;;;;;;;8.57;2.93;;;1.30;99.90;;;;;;6274454;22;20012;-81
2023/04/02 03:10:38;;;;;;;9.80;3.67;;;1.20;99.90;;;;;;6273478;22;20499;-81
2023/04/02 03:13:26;;;;;;;11.63;3.87;;;1.80;99.90;;;;;;6276403;22;20023;-81
2023/04/02 03:16:24;;;;;;;10.90;3.83;;;1.20;99.90;;;;;;6276706;22;20091;-81
2023/04/02 03:19:10;;;;;;;10.53;3.90;;;1.20;99.90;;;;;;6276308;22;20026;-81
2023/04/02 03:21:47;;;;;;;11.47;4.00;;;1.20;99.90;;;;;;6276292;22;20019;-82
2023/04/02 03:24:24;;;;;;;11.60;4.43;;;1.20;99.90;;;;;;6275271;22;20015;-81
2023/04/02 03:27:21;;;;;;;10.87;4.20;;;1.20;99.90;;;;;;6280571;22;20015;-81
2023/04/02 03:30:03;;;;;;;12.63;4.23;;;1.20;99.90;;;;;;6275061;22;20012;-81
2023/04/02 03:32:33;;;;;;;11.30;4.30;;;1.20;99.90;;;;;;6276691;22;20099;-81
2023/04/02 03:35:08;;;;;;;10.10;4.87;;;1.20;99.90;;;;;;6279746;22;20016;-81
2023/04/02 03:37:45;;;;;;;12.77;5.23;;;1.20;99.90;;;;;;6275888;22;20348;-81
2023/04/02 03:40:22;;;;;;;10.83;5.00;;;1.20;99.90;;;;;;6275602;22;20417;-81
2023/04/02 03:42:53;;;;;;;12.27;5.10;;;2.20;99.90;;;;;;6276625;22;20091;-81
2023/04/02 03:45:23;;;;;;;11.27;5.33;;;1.30;99.90;;;;;;6275311;22;20069;-81
2023/04/02 03:47:55;;;;;;;11.27;5.20;;;1.30;99.90;;;;;;6274608;22;20016;-81
2023/04/02 03:50:27;;;;;;;11.80;5.00;;;1.30;99.90;;;;;;6275912;22;20016;-80
2023/04/02 03:52:53;;;;;;;12.70;6.00;;;1.40;99.90;;;;;;6273377;22;20026;-81
2023/04/02 03:55:21;;;;;;;10.93;5.80;;;1.30;99.90;;;;;;6274217;22;20043;-81
2023/04/02 03:58:08;;;;;;;12.50;5.77;;;1.30;99.90;;;;;;6274097;22;20455;-81
2023/04/02 04:00:38;;;;;;;13.67;5.47;;;1.30;99.90;;;;;;6275602;22;20012;-81
2023/04/02 04:03:21;;;;;;;14.07;5.80;;;1.30;99.90;;;;;;6278734;22;20026;-81
2023/04/02 04:05:49;;;;;;;12.10;5.40;;;1.30;99.90;;;;;;6279048;22;20051;-81
2023/04/02 04:08:25;;;;;;;12.20;6.13;;;1.30;99.90;;;;;;6274490;22;20364;-81
2023/04/02 04:10:57;;;;;;;12.27;5.40;;;1.30;99.90;;;;;;6274430;22;20019;-81
2023/04/02 04:13:32;;;;;;;13.33;5.60;;;1.30;99.90;;;;;;6275533;22;20016;-81
2023/04/02 04:16:07;;;;;;;9.93;5.17;;;1.30;99.90;;;;;;6275833;22;20015;-81
2023/04/02 04:19:14;;;;;;;13.53;6.03;;;1.20;99.90;;;;;;6274205;22;20478;-81
2023/04/02 04:21:43;;;;;;;10.63;5.73;;;1.20;99.90;;;;;;6247184;22;20399;-81
2023/04/02 04:24:21;;;;;;;11.63;5.77;;;1.20;99.90;;;;;;6273802;22;20018;-81
2023/04/02 04:27:02;;;;;;;12.53;5.73;;;1.20;99.90;;;;;;6273585;22;20016;-81
2023/04/02 04:29:39;;;;;;;11.43;5.83;;;1.30;99.90;;;;;;6248638;22;20518;-81
2023/04/02 04:32:32;;;;;;;12.87;6.53;;;1.30;99.90;;;;;;6275764;22;20023;-82
2023/04/02 04:35:15;;;;;;;13.73;6.97;;;1.20;99.90;;;;;;6272999;22;20047;-81
2023/04/02 04:37:43;;;;;;;13.50;7.40;;;1.20;99.90;;;;;;6274067;22;20069;-81
2023/04/02 04:40:10;;;;;;;14.50;7.70;;;1.10;99.90;;;;;;6273588;22;20018;-81
2023/04/02 04:42:40;;;;;;;12.70;6.87;;;1.20;99.90;;;;;;6274893;22;20339;-81
2023/04/02 04:45:11;;;;;;;14.97;7.37;;;1.10;99.90;;;;;;6275832;22;20016;-81
2023/04/02 04:47:42;;;;;;;14.03;7.70;;;1.10;99.90;;;;;;6277133;22;20047;-81
2023/04/02 04:50:34;;;;;;;14.87;7.50;;;1.10;99.90;;;;;;6277257;22;20016;-81
2023/04/02 04:53:07;;;;;;;13.63;7.27;;;1.10;99.90;;;;;;6276983;22;20022;-81
2023/04/02 04:55:41;;;;;;;15.75;7.30;;;1.10;99.90;;;;;;6277119;22;20150;-81
2023/04/02 04:58:10;;;;;;;13.50;7.10;;;1.10;99.90;;;;;;6276435;22;20094;-81
2023/04/02 05:01:02;;;;;;;15.23;7.23;;;1.10;99.90;;;;;;6282666;22;20019;-81
2023/04/02 05:03:43;;;;;;;13.00;6.77;;;1.00;99.90;;;;;;6278028;22;20016;-81
2023/04/02 05:06:32;;;;;;;13.80;7.20;;;1.10;99.90;;;;;;6277422;22;20328;-81
2023/04/02 05:09:10;;;;;;;12.93;7.13;;;1.00;99.90;;;;;;6280362;22;20695;-81
2023/04/02 05:11:44;;;;;;;12.90;7.53;;;1.10;99.90;;;;;;6275864;22;20063;-81
2023/04/02 05:14:20;;;;;;;13.53;7.40;;;1.10;99.90;;;;;;6275319;22;20018;-81
2023/04/02 05:17:14;;;;;;;12.97;6.30;;;1.00;99.90;;;;;;6276669;22;20016;-81
2023/04/02 05:19:59;;;;;;;11.35;6.03;;;1.00;99.90;;;;;;6259822;22;20397;-81
2023/04/02 05:22:33;;;;;;;14.17;6.43;;;1.00;99.90;;;;;;6275759;22;20008;-81
2023/04/02 05:25:27;;;;;;;12.20;5.83;;;1.00;99.90;;;;;;6276250;22;20012;-81
2023/04/02 05:28:11;;;;;;;12.80;5.47;;;1.10;99.90;;;;;;6275456;22;20020;-81
2023/04/02 05:30:52;;;;;;;10.37;4.77;;;1.10;99.90;;;;;;6276374;22;20011;-81
2023/04/02 05:33:32;;;;;;;12.50;5.20;;;1.10;99.90;;;;;;6275202;22;20016;-81
2023/04/02 05:36:10;;;;;;;13.20;5.23;;;1.10;99.90;;;;;;6275052;22;20027;-80
2023/04/02 05:38:38;;;;;;;11.30;4.83;;;1.20;99.90;;;;;;6274602;22;20348;-81
2023/04/02 05:41:20;;;;;;;11.20;4.60;;;1.20;99.90;;;;;;6276931;22;20008;-81
2023/04/02 05:43:49;;;;;;;12.40;4.53;;;1.20;99.90;;;;;;6277327;22;20016;-80
2023/04/02 05:46:21;;;;;;;10.23;3.80;;;1.30;99.90;;;;;;6274775;22;20501;-82
2023/04/02 05:48:54;;;;;;;10.17;3.80;;;1.30;99.90;;;;;;6276910;22;20463;-81
2023/04/02 05:51:38;;;;;;;11.57;3.75;;;1.30;99.90;;;;;;6276140;22;20088;-81
2023/04/02 05:54:13;;;;;;;10.63;3.10;;;1.30;99.90;;;;;;6274307;22;20047;-80
2023/04/02 05:56:43;;;;;;;11.07;3.50;;;1.30;99.90;;;;;;6277169;22;20056;-81
2023/04/02 05:59:21;;;;;;;8.17;2.90;;;1.40;99.90;;;;;;6276022;22;20038;-81
2023/04/02 06:02:21;;;;;;;9.97;2.80;;;1.40;99.90;;;;;;6275183;22;20462;-82
2023/04/02 06:05:01;;;;;;;11.57;3.13;;;1.40;99.90;;;;;;6277140;22;20022;-80
2023/04/02 06:07:43;;;;;;;10.23;3.10;;;1.40;99.90;;;;;;6276700;22;20015;-81
2023/04/02 06:10:22;;;;;;;10.13;3.60;;;1.50;99.90;;;;;;6274826;22;20023;-81
2023/04/02 06:12:56;;;;;;;10.20;3.00;;;1.50;99.90;;;;;;6274385;22;20431;-82
2023/04/02 06:15:25;;;;;;;10.73;2.70;;;1.50;99.90;;;;;;6275296;22;20062;-81
2023/04/02 06:17:58;;;;;;;9.47;2.80;;;1.50;99.90;;;;;;6274870;22;20015;-81
2023/04/02 06:20:23;;;;;;;9.77;2.73;;;1.50;99.90;;;;;;6274385;22;20020;-81
2023/04/02 06:22:55;;;;;;;7.97;2.63;;;1.50;99.90;;;;;;6274952;22;20026;-82
2023/04/02 06:25:25;;;;;;;11.60;3.00;;;1.60;99.90;;;;;;6276742;22;20043;-81
2023/04/02 06:27:53;;;;;;;11.43;3.00;;;2.10;99.90;;;;;;6274026;22;20020;-81
2023/04/02 06:30:24;;;;;;;8.50;2.50;;;1.60;99.90;;;;;;6275032;22;20012;-81
2023/04/02 06:32:50;;;;;;;10.03;2.93;;;1.70;99.90;;;;;;6282981;22;20012;-81
2023/04/02 06:35:16;;;;;;;9.00;2.90;;;1.70;99.90;;;;;;6279595;22;20567;-81
2023/04/02 06:37:46;;;;;;;10.80;3.03;;;1.80;99.90;;;;;;6275433;22;20011;-81
2023/04/02 06:40:27;;;;;;;11.07;2.80;;;1.80;99.90;;;;;;6282382;22;20018;-81
2023/04/02 06:42:58;;;;;;;10.07;2.80;;;1.90;99.90;;;;;;6276622;22;20012;-81
2023/04/02 06:45:32;;;;;;;9.30;3.20;;;1.90;99.90;;;;;;6277170;22;20015;-81
2023/04/02 06:48:00;;;;;;;8.63;3.00;;;1.90;99.90;;;;;;6275785;22;20068;-81
2023/04/02 06:50:33;;;;;;;8.67;3.10;;;1.90;99.90;;;;;;6276817;22;20336;-81
2023/04/02 06:53:08;;;;;;;9.77;3.10;;;1.90;99.90;;;;;;6274304;22;20016;-81
2023/04/02 06:55:55;;;;;;;9.07;2.90;;;2.00;99.90;;;;;;6275961;22;20015;-80
2023/04/02 06:58:21;;;;;;;9.47;2.90;;;2.00;99.90;;;;;;6274295;22;20019;-80
2023/04/02 07:00:49;;;;;;;7.40;2.73;;;2.50;99.90;;;;;;6274918;22;20098;-81
2023/04/02 07:03:20;;;;;;;9.93;2.77;;;2.10;99.90;;;;;;6273201;22;20023;-80
2023/04/02 07:05:46;;;;;;;8.53;2.90;;;2.10;99.90;;;;;;6276537;22;20011;-80
2023/04/02 07:08:12;;;;;;;9.87;2.87;;;2.20;99.90;;;;;;6275846;22;20061;-80
2023/04/02 07:10:37;;;;;;;8.67;2.83;;;2.20;99.90;;;;;;6276221;22;20015;-80
2023/04/02 07:13:04;;;;;;;10.50;2.87;;;2.20;99.90;;;;;;6274379;22;20070;-80
2023/04/02 07:15:30;;;;;;;11.13;2.77;;;2.30;99.90;;;;;;6275701;22;20015;-80
2023/04/02 07:17:58;;;;;;;7.40;2.40;;;2.40;99.90;;;;;;6275961;22;20096;-80
2023/04/02 07:20:26;;;;;;;6.57;2.40;;;2.40;99.90;;;;;;6274738;22;20095;-80
2023/04/02 07:22:51;;;;;;;9.20;2.67;;;2.60;99.90;;;;;;6275410;22;20020;-80
2023/04/02 07:25:17;;;;;;;10.00;2.67;;;2.70;99.90;;;;;;6274218;22;20054;-80
2023/04/02 07:27:42;;;;;;;8.37;2.50;;;2.90;99.90;;;;;;6276580;22;20065;-80
2023/04/02 07:30:08;;;;;;;10.73;2.70;;;3.10;99.90;;;;;;6272797;22;20454;-81
2023/04/02 07:32:34;;;;;;;7.90;2.27;;;3.20;99.90;;;;;;6276361;22;20440;-80
2023/04/02 07:35:00;;;;;;;8.73;2.50;;;3.10;99.90;;;;;;6276130;22;20094;-81
2023/04/02 07:37:26;;;;;;;12.00;2.77;;;3.00;99.90;;;;;;6275320;22;20022;-81
2023/04/02 07:39:51;;;;;;;10.07;2.97;;;2.90;99.90;;;;;;6273986;22;20007;-80
2023/04/02 07:42:17;;;;;;;8.27;2.63;;;2.90;99.90;;;;;;6275366;22;20490;-80
2023/04/02 07:44:42;;;;;;;9.03;2.23;;;2.80;99.90;;;;;;6274924;22;20463;-81
2023/04/02 07:47:09;;;;;;;8.23;2.10;;;2.70;99.90;;;;;;6273919;22;20011;-80
2023/04/02 07:49:35;;;;;;;8.10;2.43;;;2.60;99.90;;;;;;6276503;22;20018;-80
2023/04/02 07:52:00;;;;;;;8.90;2.40;;;2.60;99.90;;;;;;6272714;22;20039;-80
2023/04/02 07:54:26;;;;;;;8.40;2.60;;;2.60;99.90;;;;;;6275878;22;20020;-80
2023/04/02 07:56:52;;;;;;;9.07;2.77;;;3.80;99.90;;;;;;6276109;22;20087;-80
2023/04/02 07:59:18;;;;;;;9.57;2.50;;;2.60;99.90;;;;;;6274873;22;20015;-81
2023/04/02 08:01:43;;;;;;;8.93;2.63;;;2.70;99.90;;;;;;6276219;22;20312;-80
2023/04/02 08:04:20;;;;;;;8.23;2.97;;;3.20;99.90;;;;;;6274658;22;20427;-80
2023/04/02 08:06:46;;;;;;;8.40;3.17;;;3.40;99.90;;;;;;6287534;22;20012;-80
2023/04/02 08:09:12;;;;;;;9.47;2.73;;;2.70;99.90;;;;;;6283277;22;20008;-80
2023/04/02 08:11:39;;;;;;;11.80;2.93;;;2.70;99.90;;;;;;6274795;22;20020;-81
2023/04/02 08:14:04;;;;;;;10.30;3.20;;;2.70;99.90;;;;;;6279759;22;20019;-80
2023/04/02 08:16:45;;;;;;;10.90;3.17;;;3.80;99.90;;;;;;6275434;22;20098;-81
2023/04/02 08:19:11;;;;;;;8.20;3.27;;;2.90;99.90;;;;;;6276916;22;20015;-80
2023/04/02 08:21:36;;;;;;;8.63;3.23;;;3.10;99.90;;;;;;6276321;22;20062;-80
2023/04/02 08:24:03;;;;;;;9.83;3.50;;;3.30;99.90;;;;;;6277548;22;20029;-81
2023/04/02 08:26:28;;;;;;;10.97;3.77;;;3.40;99.90;;;;;;6275209;22;20383;-80
2023/04/02 08:28:54;;;;;;;8.63;3.40;;;3.50;99.90;;;;;;6276527;22;20016;-81
2023/04/02 08:31:20;;;;;;;9.67;3.60;;;3.50;99.90;;;;;;6276130;22;20011;-81
2023/04/02 08:33:45;;;;;;;8.77;3.33;;;3.50;99.90;;;;;;6275179;22;20347;-81
2023/04/02 08:36:18;;;;;;;9.87;3.57;;;3.60;99.90;;;;;;6277594;22;20011;-81
2023/04/02 08:38:45;;;;;;;10.00;3.80;;;3.60;99.90;;;;;;6278001;22;20019;-81
2023/04/02 08:41:29;;;;;;;9.60;3.53;;;3.50;99.90;;;;;;6275195;22;20047;-81
2023/04/02 08:44:16;;;;;;;10.73;3.60;;;3.50;99.90;;;;;;6277904;22;20022;-81
2023/04/02 08:47:03;;;;;;;7.80;3.63;;;3.60;99.90;;;;;;6277564;22;20020;-81
2023/04/02 08:49:39;;;;;;;7.90;3.20;;;3.50;99.90;;;;;;6276048;22;20099;-81
2023/04/02 08:52:12;;;;;;;8.40;3.90;;;3.60;99.90;;;;;;6276790;22;20103;-80
2023/04/02 08:54:38;;;;;;;11.53;3.80;;;3.70;99.90;;;;;;6276685;22;20012;-80
2023/04/02 08:57:12;;;;;;;10.10;3.60;;;3.80;99.90;;;;;;6277522;22;20018;-81
2023/04/02 08:59:40;;;;;;;8.60;3.40;;;3.90;99.90;;;;;;6280183;22;20031;-80
2023/04/02 09:02:39;;;;;;;10.10;3.10;;;4.00;99.90;;;;;;6275763;22;20039;-81
2023/04/02 09:05:14;;;;;;;9.57;3.23;;;4.10;99.90;;;;;;6277075;22;20447;-80
2023/04/02 09:07:40;;;;;;;9.20;3.73;;;4.20;99.90;;;;;;6275691;22;20016;-81
2023/04/02 09:10:14;;;;;;;9.70;3.40;;;4.20;99.90;;;;;;6276231;22;20026;-82
2023/04/02 09:12:40;;;;;;;;;;;4.30;99.90;;;;;;6278471;22;20012;-81
2023/04/02 09:15:09;;;;;;;9.10;3.00;;;4.40;99.90;;;;;;6274806;22;20042;-81
2023/04/02 09:17:36;;;;;;;9.93;3.40;;;4.50;99.90;;;;;;6275703;22;20099;-81
2023/04/02 09:20:22;;;;;;;8.03;3.20;;;4.70;99.90;;;;;;6275476;22;20054;-81
2023/04/02 09:22:50;;;;;;;10.90;3.13;;;4.70;99.90;;;;;;6276981;22;20297;-81
2023/04/02 09:25:26;;;;;;;8.33;2.90;;;4.80;99.90;;;;;;6275276;22;20012;-80
2023/04/02 09:27:57;;;;;;;10.13;2.87;;;4.90;99.90;;;;;;6277353;22;20016;-81
2023/04/02 09:30:30;;;;;;;9.53;3.13;;;5.00;99.90;;;;;;6274965;22;20190;-81
2023/04/02 09:32:58;;;;;;;9.38;3.05;;;5.30;99.90;;;;;;6276995;22;20031;-81
2023/04/02 09:35:28;;;;;;;10.00;2.87;;;5.20;99.90;;;;;;6282405;22;20070;-82
2023/04/02 09:38:09;;;;;;;9.50;3.23;;;5.50;99.90;;;;;;6276842;22;20026;-81
2023/04/02 09:40:52;;;;;;;7.77;2.80;;;5.50;99.90;;;;;;6277359;22;20030;-81
2023/04/02 09:43:28;;;;;;;8.80;2.75;;;6.30;99.90;;;;;;6282572;22;20023;-81
2023/04/02 09:46:01;;;;;;;7.53;2.90;;;5.70;99.90;;;;;;6275846;22;20074;-81
2023/04/02 09:48:29;;;;;;;8.38;2.80;;;5.80;99.90;;;;;;6275697;22;20018;-81
2023/04/02 09:51:16;;;;;;;8.07;2.70;;;5.80;99.90;;;;;;6274841;22;20108;-81
2023/04/02 09:54:04;;;;;;;9.00;2.80;;;6.00;99.90;;;;;;6274647;22;20076;-82
2023/04/02 09:56:33;;;;;;;8.40;2.70;;;6.10;99.90;;;;;;6275230;22;20061;-81
2023/04/02 09:59:12;;;;;;;8.00;2.70;;;6.20;99.90;;;;;;6273808;22;20069;-81
2023/04/02 10:01:56;;;;;;;8.93;2.70;;;6.20;99.90;;;;;;6277573;22;20016;-81
2023/04/02 10:04:43;;;;;;;10.50;2.90;;;6.80;99.90;;;;;;6276118;22;20015;-81
2023/04/02 10:07:42;;;;;;;7.10;2.60;;;6.20;99.90;;;;;;6274996;22;20089;-81
2023/04/02 10:10:43;;;;;;;7.83;2.70;;;6.30;99.90;;;;;;6276605;22;20020;-81
2023/04/02 10:13:27;;;;;;;7.83;2.70;;;6.50;99.90;;;;;;6274157;22;20008;-81
2023/04/02 10:16:32;;;;;;;8.00;2.73;;;6.50;99.90;;;;;;6276576;22;20447;-81
2023/04/02 10:19:14;;;;;;;8.05;2.55;;;6.60;99.90;;;;;;6275633;22;20011;-81
2023/04/02 10:21:42;;;;;;;8.33;2.60;;;6.70;99.90;;;;;;6275324;22;20343;-81
2023/04/02 10:24:15;;;;;;;9.10;2.70;;;7.00;99.90;;;;;;6274521;22;20070;-81
2023/04/02 10:26:52;;;;;;;10.50;2.88;;;7.30;99.90;;;;;;6274521;22;20016;-81
2023/04/02 10:29:36;;;;;;;7.37;2.30;;;7.60;99.90;;;;;;6276390;22;20031;-81
2023/04/02 10:32:19;;;;;;;8.43;2.70;;;7.70;99.90;;;;;;6274438;22;20092;-81
2023/04/02 10:34:50;;;;;;;8.55;2.25;;;8.00;99.90;;;;;;6274152;22;20090;-82
2023/04/02 10:37:38;;;;;;;7.43;2.40;;;8.00;99.90;;;;;;6248840;22;20054;-81
2023/04/02 10:40:23;;;;;;;10.97;2.43;;;7.90;99.90;;;;;;6275115;22;20019;-81
2023/04/02 10:43:11;;;;;;;6.78;2.17;;;8.70;99.90;;;;;;6274877;22;20331;-81
2023/04/02 10:45:45;;;;;;;7.90;2.60;;;7.90;99.90;;;;;;6274998;22;20020;-81
2023/04/02 10:48:41;;;;;;;6.63;2.10;;;8.20;99.90;;;;;;6273700;22;20015;-81
2023/04/02 10:51:50;;;;;;;6.72;2.25;;;8.20;99.90;;;;;;6276474;22;20019;-81
2023/04/02 10:54:26;;;;;;;8.30;2.25;;;8.40;99.90;;;;;;6272766;22;20061;-80
2023/04/02 10:57:04;;;;;;;7.90;2.20;;;8.80;99.90;;;;;;6275158;22;20011;-81
2023/04/02 10:59:33;;;;;;;7.35;2.10;;;9.10;99.90;;;;;;6275060;22;20012;-81
2023/04/02 11:02:02;;;;;;;7.05;2.10;;;10.00;99.90;;;;;;6280063;22;20050;-81
2023/04/02 11:04:45;;;;;;;7.63;2.40;;;10.60;99.90;;;;;;6276108;22;20027;-81
2023/04/02 11:07:18;;;;;;;7.32;2.17;;;9.50;99.90;;;;;;6276782;22;20047;-81
2023/04/02 11:09:48;;;;;;;6.60;2.20;;;10.40;99.90;;;;;;6279046;22;20026;-81
2023/04/02 11:12:26;;;;;;;7.70;2.20;;;9.40;99.90;;;;;;6276668;22;20012;-81
2023/04/02 11:14:53;;;;;;;7.18;2.05;;;10.30;99.90;;;;;;6274300;22;20038;-81
2023/04/02 11:17:20;;;;;;;7.60;2.00;;;10.20;99.90;;;;;;6274412;22;20050;-81
2023/04/02 11:19:46;;;;;;;6.38;1.92;;;10.80;99.90;;;;;;6274737;22;20050;-81
2023/04/02 11:22:17;;;;;;;7.82;2.30;;;9.40;99.90;;;;;;6275270;22;20064;-81
2023/04/02 11:24:48;;;;;;;7.45;2.17;;;9.50;99.90;;;;;;6274360;22;20020;-81
2023/04/02 11:27:24;;;;;;;6.32;2.03;;;9.30;99.90;;;;;;6274272;22;20379;-81
2023/04/02 11:30:29;;;;;;;8.18;2.05;;;9.20;99.90;;;;;;6273256;22;20094;-81
2023/04/02 11:33:23;;;;;;;8.23;2.00;;;9.30;99.90;;;;;;6182487;23;20017;-81
2023/04/02 11:35:49;;;;;;;7.40;2.15;;;9.50;99.90;;;;;;6156737;23;20104;-81
2023/04/02 11:38:20;;;;;;;6.88;2.00;;;9.60;99.90;;;;;;6233277;22;20042;-81
2023/04/02 11:40:57;;;;;;;7.50;2.30;;;9.50;99.90;;;;;;6274503;22;20054;-81
2023/04/02 11:43:31;;;;;;;6.55;2.10;;;9.50;99.90;;;;;;6273370;22;20018;-81
2023/04/02 11:45:59;;;;;;;7.43;2.10;;;10.20;99.90;;;;;;6276071;22;20020;-81
2023/04/02 11:48:34;;;;;;;6.72;2.13;;;9.90;99.90;;;;;;6276234;22;20092;-81
2023/04/02 11:51:19;;;;;;;8.88;2.40;;;10.00;99.90;;;;;;6274010;22;20016;-81
2023/04/02 11:53:45;;;;;;;6.03;2.00;;;10.10;99.90;;;;;;6278480;22;20074;-81
2023/04/02 11:56:33;;;;;;;7.85;2.15;;;10.60;99.90;;;;;;6276024;22;20020;-82
2023/04/02 11:59:20;;;;;;;7.90;2.17;;;9.30;99.90;;;;;;6276061;22;20090;-83
2023/04/02 12:02:08;;;;;;;7.63;2.15;;;9.20;99.90;;;;;;6278594;22;20015;-85
2023/04/02 12:05:03;;;;;;;7.15;2.17;;;9.50;99.90;;;;;;6277566;22;20015;-83
2023/04/02 12:08:21;;;;;;;8.00;2.22;;;9.70;99.90;;;;;;6277283;22;20334;-83
2023/04/02 12:10:58;;;;;;;7.00;1.90;;;9.90;99.90;;;;;;6183359;23;20334;-82
2023/04/02 12:13:39;;;;;;;7.68;2.10;;;10.00;99.90;;;;;;6159077;23;20509;-82
2023/04/02 12:16:12;;;;;;;6.10;1.90;;;10.20;99.90;;;;;;6242128;22;20027;-83
2023/04/02 12:18:53;;;;;;;8.02;2.30;;;9.90;99.90;;;;;;6274834;22;20011;-81
2023/04/02 12:21:22;;;;;;;6.40;2.00;;;9.90;99.90;;;;;;6275498;22;20020;-82
2023/04/02 12:23:52;;;;;;;6.30;1.90;;;10.80;99.90;;;;;;6273878;22;20015;-83
2023/04/02 12:26:41;;;;;;;5.65;2.00;;;10.30;99.90;;;;;;6274327;22;20023;-83
2023/04/02 12:29:32;;;;;;;6.75;1.90;;;10.10;99.90;;;;;;6279900;22;20008;-82
2023/04/02 12:31:59;;;;;;;7.13;2.08;;;10.10;99.90;;;;;;6277105;22;20095;-82
2023/04/02 12:34:27;;;;;;;5.97;2.03;;;10.20;99.90;;;;;;6296560;22;20039;-83
2023/04/02 12:37:24;;;;;;;6.75;1.95;;;10.20;99.90;;;;;;6281978;22;20466;-82
2023/04/02 12:39:58;;;;;;;7.13;2.08;;;10.80;99.90;;;;;;6250329;22;20478;-83
2023/04/02 12:42:36;;;;;;;6.32;2.00;;;11.00;99.90;;;;;;6277213;22;20332;-82
2023/04/02 12:45:05;;;;;;;7.25;1.98;;;10.30;99.90;;;;;;6275248;22;20015;-82
2023/04/02 12:47:31;;;;;;;8.52;2.30;;;10.60;99.90;;;;;;6276136;22;20054;-82
2023/04/02 12:50:01;;;;;;;7.63;2.22;;;10.80;99.90;;;;;;6276490;22;20444;-82
2023/04/02 12:52:28;;;;;;;7.65;1.77;;;11.90;99.90;;;;;;6274969;22;20012;-82
2023/04/02 12:54:57;;;;;;;6.00;1.85;;;11.20;99.90;;;;;;6276751;22;20016;-82
2023/04/02 12:57:25;;;;;;;8.43;2.10;;;11.20;99.90;;;;;;6277042;22;20443;-82
2023/04/02 13:00:00;;;;;;;5.25;1.67;;;11.10;99.90;;;;;;6277397;22;20022;-82
2023/04/02 13:02:28;;;;;;;7.65;1.80;;;11.10;99.90;;;;;;6275479;22;20011;-82
2023/04/02 13:04:55;;;;;;;6.45;1.88;;;11.10;99.90;;;;;;6274438;22;20102;-82
2023/04/02 13:07:26;;;;;;;6.95;1.90;;;10.90;99.90;;;;;;6275330;22;20083;-82
2023/04/02 13:09:54;;;;;;;7.70;2.00;;;11.60;99.90;;;;;;6275234;22;20026;-82
2023/04/02 13:12:35;;;;;;;6.78;1.80;;;11.40;99.90;;;;;;6274748;22;20137;-82
2023/04/02 13:15:03;;;;;;;5.50;1.70;;;11.40;99.90;;;;;;6276345;22;20011;-82
2023/04/02 13:17:47;;;;;;;7.55;1.90;;;11.70;99.90;;;;;;6273485;22;20336;-82
2023/04/02 13:20:34;;;;;;;6.57;2.10;;;11.60;99.90;;;;;;6274489;22;20095;-82
2023/04/02 13:23:22;;;;;;;8.93;2.22;;;12.00;99.90;;;;;;6272558;22;20019;-82
2023/04/02 13:25:48;;;;;;;7.97;2.20;;;11.90;99.90;;;;;;6273661;22;20459;-82
2023/04/02 13:28:14;;;;;;;7.53;2.15;;;11.00;99.90;;;;;;6272612;22;20043;-81
2023/04/02 13:30:40;;;;;;;6.15;1.95;;;11.20;99.90;;;;;;6276496;22;20022;-81
2023/04/02 13:33:06;;;;;;;6.90;1.80;;;11.50;99.90;;;;;;6273503;22;20012;-81